Time;durP1;ratioP1;P1;durP2;ratioP2;P2;SDS_P1;SDS_P2;PMS_P1;PMS_P2;Temp;Humidity;BMP_temperature;BMP_pressure;BME280_temperature;BME280_humidity;BME280_pressure;Samples;Min_cycle;Max_cycle;Signal;HPM_P1;HPM_P2
2023/10/01 00:00:20;;;;;;;18.60;9.68;;;15.60;99.90;;;;;;5130918;27;20158;-62
2023/10/01 00:02:49;;;;;;;16.10;9.65;;;15.50;99.90;;;;;;5112186;28;20047;-61
2023/10/01 00:05:14;;;;;;;18.33;9.52;;;15.50;99.90;;;;;;5112589;28;20039;-60
2023/10/01 00:07:42;;;;;;;15.18;9.95;;;15.50;99.90;;;;;;5131445;28;20044;-60
2023/10/01 00:10:13;;;;;;;20.25;9.90;;;15.50;99.90;;;;;;5131574;28;20439;-61
2023/10/01 00:12:45;;;;;;;16.27;9.40;;;15.50;99.90;;;;;;5131412;28;20172;-58
2023/10/01 00:15:12;;;;;;;16.58;8.98;;;15.40;99.90;;;;;;5131605;28;20441;-61
2023/10/01 00:17:46;;;;;;;16.88;8.93;;;15.40;99.90;;;;;;5131544;28;20046;-60
2023/10/01 00:22:52;;;;;;;14.75;8.98;;;15.30;99.90;;;;;;5130831;28;20043;-62
2023/10/01 00:25:18;;;;;;;15.75;8.77;;;15.30;99.90;;;;;;5130638;28;20121;-62
2023/10/01 00:27:45;;;;;;;15.90;9.00;;;15.30;99.90;;;;;;5130941;28;20036;-60
2023/10/01 00:30:11;;;;;;;13.90;9.23;;;15.30;99.90;;;;;;5112917;28;20121;-62
2023/10/01 00:32:38;;;;;;;20.90;9.38;;;15.30;99.90;;;;;;5130575;28;20186;-59
2023/10/01 00:35:05;;;;;;;16.65;9.68;;;15.30;99.90;;;;;;5111022;28;20050;-59
2023/10/01 00:37:32;;;;;;;15.45;9.07;;;15.30;99.90;;;;;;5129065;27;20051;-59
2023/10/01 00:39:59;;;;;;;12.63;8.77;;;15.30;99.90;;;;;;5110706;28;20043;-59
2023/10/01 00:42:26;;;;;;;17.15;9.10;;;15.40;99.90;;;;;;5112078;28;20521;-59
2023/10/01 00:44:53;;;;;;;13.93;9.77;;;15.40;99.90;;;;;;5111510;28;20086;-57
2023/10/01 00:47:21;;;;;;;15.48;9.65;;;15.40;99.90;;;;;;5130839;28;20035;-59
2023/10/01 00:49:47;;;;;;;16.83;9.43;;;15.40;99.90;;;;;;5131026;27;20035;-60
2023/10/01 00:52:20;;;;;;;16.73;10.02;;;15.40;99.90;;;;;;5134041;27;20074;-60
2023/10/01 00:54:54;;;;;;;17.80;9.98;;;15.40;99.90;;;;;;5116836;27;20444;-59
2023/10/01 00:57:21;;;;;;;17.70;10.02;;;14.70;99.90;;;;;;5134628;27;20110;-60
2023/10/01 00:59:48;;;;;;;16.88;10.50;;;15.40;99.90;;;;;;5112407;28;20044;-60
2023/10/01 01:02:15;;;;;;;15.57;9.90;;;15.40;99.90;;;;;;5113814;28;20040;-62
2023/10/01 01:04:48;;;;;;;18.15;10.88;;;15.40;99.90;;;;;;5107901;28;20047;-59
2023/10/01 01:07:20;;;;;;;17.23;10.00;;;15.40;99.90;;;;;;5093590;28;20104;-59
2023/10/01 01:09:46;;;;;;;16.55;10.82;;;15.40;99.90;;;;;;5093006;28;20033;-60
2023/10/01 01:12:13;;;;;;;13.60;10.45;;;15.40;99.90;;;;;;5093764;28;20439;-59
2023/10/01 01:14:45;;;;;;;14.55;9.88;;;15.40;99.90;;;;;;5093480;28;20086;-59
2023/10/01 01:17:11;;;;;;;16.77;10.70;;;15.40;99.90;;;;;;5093555;28;20040;-60
2023/10/01 01:19:38;;;;;;;16.50;9.88;;;15.30;99.90;;;;;;5093197;28;20040;-60
2023/10/01 01:22:04;;;;;;;16.40;10.32;;;15.40;99.90;;;;;;5091178;28;20620;-60
2023/10/01 01:24:30;;;;;;;17.67;10.85;;;15.40;99.90;;;;;;5073683;28;20036;-63
2023/10/01 01:27:00;;;;;;;16.70;10.60;;;15.40;99.90;;;;;;5092926;28;20036;-59
2023/10/01 01:29:33;;;;;;;17.80;11.18;;;15.40;99.90;;;;;;5091595;28;20048;-61
2023/10/01 01:32:13;;;;;;;16.70;10.43;;;15.30;99.90;;;;;;5092829;28;20036;-60
2023/10/01 01:34:46;;;;;;;17.75;11.63;;;15.30;99.90;;;;;;5092695;28;20043;-60
2023/10/01 01:37:46;;;;;;;17.55;10.68;;;15.40;99.90;;;;;;5093049;28;20032;-59
2023/10/01 01:40:25;;;;;;;17.80;11.05;;;15.40;99.90;;;;;;5092682;28;20040;-62
2023/10/01 01:42:56;;;;;;;17.35;10.60;;;15.30;99.90;;;;;;5092349;28;20511;-60
2023/10/01 01:45:27;;;;;;;15.27;10.70;;;15.30;99.90;;;;;;5091733;28;20034;-61
2023/10/01 01:47:53;;;;;;;14.50;10.98;;;15.30;99.90;;;;;;5092279;28;20035;-62
2023/10/01 01:50:26;;;;;;;17.88;11.30;;;15.30;99.90;;;;;;5091595;28;20058;-61
2023/10/01 01:53:04;;;;;;;18.80;11.13;;;15.30;99.90;;;;;;5092363;28;20075;-61
2023/10/01 01:55:34;;;;;;;17.95;11.05;;;15.30;99.90;;;;;;5091711;28;20055;-61
2023/10/01 01:58:08;;;;;;;15.70;10.80;;;15.40;99.90;;;;;;5092920;28;20505;-61
2023/10/01 02:00:35;;;;;;;;;;;15.30;99.90;;;;;;5118979;27;20605;-60
2023/10/01 02:03:10;;;;;;;15.95;11.05;;;15.30;99.90;;;;;;5131578;27;19923;-61
2023/10/01 02:05:37;;;;;;;18.95;11.82;;;15.30;99.90;;;;;;5114774;27;20499;-60
2023/10/01 02:08:09;;;;;;;17.65;12.15;;;15.30;99.90;;;;;;5113690;27;20096;-60
2023/10/01 02:10:47;;;;;;;16.95;12.38;;;15.30;99.90;;;;;;5113155;27;20130;-59
2023/10/01 02:13:15;;;;;;;15.77;11.65;;;15.20;99.90;;;;;;5132882;27;20042;-60
2023/10/01 02:15:40;;;;;;;19.63;12.88;;;15.30;99.90;;;;;;5131522;27;20113;-59
2023/10/01 02:18:09;;;;;;;18.05;12.90;;;15.30;99.90;;;;;;5097452;27;20106;-60
2023/10/01 02:20:35;;;;;;;18.58;12.82;;;15.30;99.90;;;;;;5132964;27;20482;-61
2023/10/01 02:23:04;;;;;;;16.30;11.52;;;15.30;99.90;;;;;;5114444;27;20043;-61
2023/10/01 02:25:45;;;;;;;18.80;12.55;;;15.30;99.90;;;;;;5132420;27;20035;-59
2023/10/01 02:28:15;;;;;;;16.98;12.30;;;15.30;99.90;;;;;;5132823;27;20553;-62
2023/10/01 02:30:42;;;;;;;17.20;12.40;;;15.30;99.90;;;;;;5133048;27;20066;-63
2023/10/01 02:33:20;;;;;;;14.40;11.32;;;15.30;99.90;;;;;;5132679;27;20057;-59
2023/10/01 02:35:55;;;;;;;18.92;12.18;;;15.30;99.90;;;;;;5133025;27;20035;-61
2023/10/01 02:38:39;;;;;;;17.85;12.00;;;15.30;99.90;;;;;;5114275;27;20038;-59
2023/10/01 02:41:08;;;;;;;17.70;12.30;;;15.30;99.90;;;;;;5132449;27;20506;-61
2023/10/01 02:43:35;;;;;;;18.48;12.52;;;15.30;99.90;;;;;;5132843;27;20047;-61
2023/10/01 02:46:10;;;;;;;16.80;11.65;;;15.30;99.90;;;;;;5132472;27;20533;-61
2023/10/01 02:48:40;;;;;;;16.05;11.65;;;15.30;99.90;;;;;;5113981;27;20027;-60
2023/10/01 02:51:15;;;;;;;15.85;11.65;;;15.30;99.90;;;;;;5132329;27;20039;-59
2023/10/01 02:56:32;;;;;;;17.45;11.48;;;15.20;99.90;;;;;;5131464;27;20039;-58
2023/10/01 02:59:09;;;;;;;18.08;11.65;;;15.30;99.90;;;;;;5096522;27;20047;-61
2023/10/01 03:01:38;;;;;;;17.50;12.05;;;15.30;99.90;;;;;;5132016;27;20043;-61
2023/10/01 03:04:10;;;;;;;15.85;10.90;;;15.30;99.90;;;;;;5131874;27;20043;-61
2023/10/01 03:06:54;;;;;;;14.40;10.90;;;15.20;99.90;;;;;;5113440;27;20035;-58
2023/10/01 03:09:33;;;;;;;13.93;10.50;;;15.30;99.90;;;;;;5132053;27;20088;-63
2023/10/01 03:17:38;;;;;;;;;;;15.30;99.90;;;;;;5131999;27;20066;-60
2023/10/01 03:20:18;;;;;;;16.60;7.75;;;15.20;99.90;;;;;;5131919;27;20366;-61
2023/10/01 03:22:51;;;;;;;17.80;8.70;;;15.20;99.90;;;;;;5131700;27;20038;-59
2023/10/01 03:25:28;;;;;;;17.83;10.07;;;15.20;99.90;;;;;;5097465;27;20147;-60
2023/10/01 03:27:58;;;;;;;15.32;9.82;;;15.20;99.90;;;;;;5131703;27;20043;-61
2023/10/01 03:30:31;;;;;;;18.00;9.93;;;15.30;99.90;;;;;;5131409;27;20053;-63
2023/10/01 03:33:01;;;;;;;14.63;9.83;;;15.20;99.90;;;;;;5114299;27;20031;-60
2023/10/01 03:35:27;;;;;;;15.35;9.60;;;15.30;99.90;;;;;;5112956;27;20049;-62
2023/10/01 03:38:09;;;;;;;14.98;9.85;;;15.20;99.90;;;;;;5111689;27;20038;-61
2023/10/01 03:40:48;;;;;;;17.73;9.35;;;15.30;99.90;;;;;;5112848;28;20043;-61
2023/10/01 03:43:18;;;;;;;14.40;9.15;;;15.30;99.90;;;;;;5131899;27;20061;-62
2023/10/01 03:45:54;;;;;;;13.63;9.27;;;15.30;99.90;;;;;;5131840;28;20056;-63
2023/10/01 03:48:20;;;;;;;14.07;8.73;;;15.30;99.90;;;;;;5112985;28;20034;-60
2023/10/01 03:50:47;;;;;;;15.15;9.43;;;15.30;99.90;;;;;;5131865;28;20027;-61
2023/10/01 03:53:13;;;;;;;14.45;8.75;;;15.20;99.90;;;;;;5131336;28;20054;-60
2023/10/01 03:55:42;;;;;;;15.43;8.73;;;15.30;99.90;;;;;;5131391;27;20381;-62
2023/10/01 03:58:18;;;;;;;13.30;9.23;;;15.20;99.90;;;;;;5131496;28;20393;-63
2023/10/01 04:00:53;;;;;;;16.25;9.20;;;15.20;99.90;;;;;;5112434;28;20059;-63
2023/10/01 04:03:21;;;;;;;11.98;9.00;;;15.20;99.90;;;;;;5112437;28;20039;-62
2023/10/01 04:05:48;;;;;;;17.23;9.38;;;15.20;99.90;;;;;;5131858;28;20031;-59
2023/10/01 04:08:14;;;;;;;14.45;9.40;;;15.20;99.90;;;;;;5131368;28;20058;-62
2023/10/01 04:10:51;;;;;;;14.57;9.18;;;15.20;99.90;;;;;;5130047;28;20092;-63
2023/10/01 04:15:46;;;;;;;15.07;9.13;;;15.20;99.90;;;;;;5129487;27;20058;-61
2023/10/01 04:20:48;;;;;;;14.98;9.07;;;15.10;99.90;;;;;;5130040;28;20096;-58
2023/10/01 04:23:30;;;;;;;16.55;9.85;;;15.20;99.90;;;;;;5129615;28;20047;-59
2023/10/01 04:26:04;;;;;;;14.65;9.45;;;15.20;99.90;;;;;;5116055;27;20127;-60
2023/10/01 04:28:37;;;;;;;15.85;9.27;;;15.10;99.90;;;;;;5114324;27;20035;-59
2023/10/01 04:31:09;;;;;;;18.52;9.20;;;15.10;99.90;;;;;;5135044;27;20047;-61
2023/10/01 04:33:43;;;;;;;12.82;8.75;;;15.20;99.90;;;;;;5134911;27;20050;-61
2023/10/01 04:36:16;;;;;;;15.00;9.10;;;15.20;99.90;;;;;;5099391;27;20095;-59
2023/10/01 04:38:43;;;;;;;14.98;9.00;;;15.20;99.90;;;;;;5134810;27;20110;-61
2023/10/01 04:41:22;;;;;;;16.23;8.93;;;15.20;99.90;;;;;;5115922;27;20035;-62
2023/10/01 04:46:46;;;;;;;14.70;9.52;;;15.20;99.90;;;;;;5088892;27;20093;-59
2023/10/01 04:49:27;;;;;;;14.95;9.75;;;15.20;99.90;;;;;;5098898;27;20488;-60
2023/10/01 04:51:55;;;;;;;15.88;9.20;;;15.10;99.90;;;;;;5134216;27;20047;-60
2023/10/01 04:54:22;;;;;;;15.35;9.18;;;15.20;99.90;;;;;;5116003;27;20039;-59
2023/10/01 04:56:48;;;;;;;16.38;9.18;;;15.20;99.90;;;;;;5134489;27;20047;-61
2023/10/01 04:59:15;;;;;;;13.95;9.32;;;15.10;99.90;;;;;;5116038;27;20737;-60
2023/10/01 05:01:42;;;;;;;15.50;8.48;;;15.10;99.90;;;;;;5134709;27;20039;-63
2023/10/01 05:04:11;;;;;;;14.50;8.75;;;15.10;99.90;;;;;;5134513;27;20039;-62
2023/10/01 05:06:40;;;;;;;18.58;8.85;;;15.10;99.90;;;;;;5131618;27;20455;-63
2023/10/01 05:09:09;;;;;;;12.75;8.52;;;15.10;99.90;;;;;;5115615;27;20071;-62
2023/10/01 05:11:35;;;;;;;17.48;8.50;;;15.10;99.90;;;;;;5116061;27;20102;-61
2023/10/01 05:14:04;;;;;;;14.18;8.32;;;15.10;99.90;;;;;;5134480;27;20031;-61
2023/10/01 05:16:38;;;;;;;14.52;8.63;;;15.10;99.90;;;;;;5115430;27;20057;-61
2023/10/01 05:19:09;;;;;;;15.00;8.73;;;15.10;99.90;;;;;;5134319;27;20122;-62
2023/10/01 05:21:46;;;;;;;16.10;8.73;;;15.10;99.90;;;;;;5134274;27;20047;-63
2023/10/01 05:24:38;;;;;;;14.15;8.23;;;15.10;99.90;;;;;;5134184;27;20100;-65
2023/10/01 05:27:09;;;;;;;14.02;8.38;;;15.10;99.90;;;;;;5134229;27;20505;-60
2023/10/01 05:29:39;;;;;;;13.98;8.60;;;15.10;99.90;;;;;;5133937;27;20057;-62
2023/10/01 05:32:05;;;;;;;18.25;8.50;;;15.10;99.90;;;;;;5133173;27;20054;-64
2023/10/01 05:34:32;;;;;;;15.02;9.32;;;15.10;99.90;;;;;;5133454;27;20049;-60
2023/10/01 05:37:24;;;;;;;16.00;8.70;;;15.10;99.90;;;;;;5133751;27;20027;-60
2023/10/01 05:39:57;;;;;;;15.75;9.02;;;15.10;99.90;;;;;;5133175;27;20038;-63
2023/10/01 05:42:25;;;;;;;13.65;8.50;;;15.10;99.90;;;;;;5133568;27;20813;-62
2023/10/01 05:44:54;;;;;;;14.32;8.73;;;15.20;99.90;;;;;;5133606;27;20066;-63
2023/10/01 05:47:22;;;;;;;15.30;8.30;;;15.20;99.90;;;;;;5133365;27;20039;-62
2023/10/01 05:49:53;;;;;;;15.35;8.95;;;15.10;99.90;;;;;;5133512;27;20038;-59
2023/10/01 05:52:20;;;;;;;13.90;8.73;;;15.10;99.90;;;;;;5130215;27;20146;-62
2023/10/01 05:54:52;;;;;;;12.80;8.32;;;15.10;99.90;;;;;;5133154;27;20035;-61
2023/10/01 05:57:21;;;;;;;15.23;8.98;;;15.20;99.90;;;;;;5132102;27;20031;-58
2023/10/01 05:59:56;;;;;;;17.00;8.90;;;15.20;99.90;;;;;;5133053;27;20136;-61
2023/10/01 06:02:41;;;;;;;16.52;8.93;;;15.20;99.90;;;;;;5133462;27;20402;-62
2023/10/01 06:07:56;;;;;;;15.43;9.07;;;15.10;99.90;;;;;;5131013;27;20464;-61
2023/10/01 06:10:35;;;;;;;14.93;7.85;;;15.20;99.90;;;;;;5132662;27;20039;-60
2023/10/01 06:13:06;;;;;;;18.73;6.35;;;15.10;99.90;;;;;;5133644;27;20039;-60
2023/10/01 06:15:33;;;;;;;15.60;8.18;;;15.10;99.90;;;;;;5132866;27;20133;-62
2023/10/01 06:18:04;;;;;;;14.82;8.70;;;15.20;99.90;;;;;;5133067;27;20095;-58
2023/10/01 06:20:33;;;;;;;14.45;8.20;;;15.20;99.90;;;;;;5114226;27;20031;-60
2023/10/01 06:22:59;;;;;;;15.10;7.95;;;15.10;99.90;;;;;;5132815;27;20035;-62
2023/10/01 06:25:40;;;;;;;15.40;7.80;;;15.20;99.90;;;;;;5132639;27;20130;-58
2023/10/01 06:28:09;;;;;;;17.63;8.15;;;15.20;99.90;;;;;;5132497;27;20046;-59
2023/10/01 06:30:42;;;;;;;13.35;7.57;;;15.20;99.90;;;;;;5132394;27;20035;-60
2023/10/01 06:33:24;;;;;;;12.95;7.35;;;15.20;99.90;;;;;;5131614;27;20027;-59
2023/10/01 06:38:38;;;;;;;12.48;7.47;;;15.20;99.90;;;;;;5131374;27;20125;-59
2023/10/01 06:41:06;;;;;;;13.90;8.27;;;15.20;99.90;;;;;;5132704;27;20105;-61
2023/10/01 06:43:32;;;;;;;15.18;7.82;;;15.20;99.90;;;;;;5132808;27;20103;-59
2023/10/01 06:46:03;;;;;;;17.75;8.18;;;15.30;99.90;;;;;;5132686;27;20027;-60
2023/10/01 06:48:28;;;;;;;16.40;7.85;;;15.30;99.90;;;;;;5131382;27;20027;-61
2023/10/01 06:50:54;;;;;;;14.07;7.78;;;15.40;99.90;;;;;;5096265;27;20199;-59
2023/10/01 06:53:43;;;;;;;14.98;7.25;;;15.40;99.90;;;;;;5113743;27;20034;-62
2023/10/01 06:56:09;;;;;;;14.75;7.57;;;15.40;99.90;;;;;;5132078;27;20046;-60
2023/10/01 06:58:35;;;;;;;14.45;7.35;;;15.40;99.90;;;;;;5132136;27;20046;-64
2023/10/01 07:01:02;;;;;;;15.38;7.93;;;15.40;99.90;;;;;;5132079;27;20039;-63
2023/10/01 07:03:30;;;;;;;13.95;7.50;;;15.50;99.90;;;;;;5132096;27;20035;-61
2023/10/01 07:06:01;;;;;;;14.55;7.60;;;15.50;99.90;;;;;;5128409;27;20050;-59
2023/10/01 07:08:43;;;;;;;17.70;7.70;;;15.60;99.90;;;;;;5124359;27;20461;-62
2023/10/01 07:11:11;;;;;;;14.60;7.15;;;15.50;99.90;;;;;;5123624;27;20031;-60
2023/10/01 07:13:38;;;;;;;16.88;6.28;;;15.50;99.90;;;;;;5130786;27;20035;-59
2023/10/01 07:16:07;;;;;;;14.65;7.18;;;15.60;99.90;;;;;;5127756;27;20047;-61
2023/10/01 07:18:37;;;;;;;17.30;7.68;;;15.60;99.90;;;;;;5125151;27;20031;-62
2023/10/01 07:21:09;;;;;;;15.85;7.47;;;15.70;99.90;;;;;;5129463;27;20024;-62
2023/10/01 07:23:35;;;;;;;14.23;6.93;;;15.70;99.90;;;;;;5129438;27;20519;-61
2023/10/01 07:26:01;;;;;;;13.50;7.22;;;15.70;99.90;;;;;;5129773;27;20126;-61
2023/10/01 07:28:27;;;;;;;15.68;7.82;;;15.80;99.90;;;;;;5129660;27;20164;-62
2023/10/01 07:30:56;;;;;;;16.45;7.28;;;15.70;99.90;;;;;;5113281;27;20165;-62
2023/10/01 07:33:22;;;;;;;15.25;7.38;;;15.80;99.90;;;;;;5131477;27;20115;-60
2023/10/01 07:36:01;;;;;;;15.43;6.88;;;15.80;99.90;;;;;;5132001;27;20096;-62
2023/10/01 07:38:48;;;;;;;16.50;7.35;;;15.80;99.90;;;;;;5113212;28;20074;-60
2023/10/01 07:41:16;;;;;;;16.33;7.50;;;15.90;99.90;;;;;;5133106;27;20087;-61
2023/10/01 07:43:45;;;;;;;15.07;7.15;;;15.90;99.90;;;;;;5131831;27;20393;-60
2023/10/01 07:46:14;;;;;;;15.90;7.55;;;16.00;99.90;;;;;;5131894;28;20054;-61
2023/10/01 07:48:46;;;;;;;16.15;8.05;;;16.00;99.90;;;;;;5113319;28;20042;-63
2023/10/01 07:51:35;;;;;;;14.57;7.25;;;16.00;99.90;;;;;;5112942;28;20107;-61
2023/10/01 07:54:11;;;;;;;15.65;7.03;;;16.00;99.90;;;;;;5113058;28;20092;-61
2023/10/01 07:56:49;;;;;;;14.82;7.32;;;16.10;99.90;;;;;;5131123;28;20550;-60
2023/10/01 07:59:34;;;;;;;16.52;6.85;;;16.10;99.90;;;;;;5113238;27;20043;-61
2023/10/01 08:07:17;;;;;;;15.10;7.05;;;16.30;99.90;;;;;;5134934;27;20118;-59
2023/10/01 08:09:51;;;;;;;16.17;7.65;;;16.30;99.90;;;;;;5110693;27;20043;-59
2023/10/01 08:12:40;;;;;;;19.10;8.07;;;16.40;99.90;;;;;;5133299;27;20074;-60
2023/10/01 08:15:15;;;;;;;17.73;7.45;;;16.50;99.90;;;;;;5117940;27;20039;-59
2023/10/01 08:17:43;;;;;;;15.05;7.70;;;16.60;99.90;;;;;;5134452;27;20036;-60
2023/10/01 08:20:21;;;;;;;14.77;7.13;;;16.70;99.90;;;;;;5132688;27;20035;-60
2023/10/01 08:25:42;;;;;;;15.35;6.90;;;16.80;99.90;;;;;;5134994;27;20137;-58
2023/10/01 08:30:43;;;;;;;16.38;7.10;;;16.90;99.90;;;;;;5134441;27;20042;-58
2023/10/01 08:33:32;;;;;;;14.27;7.45;;;17.00;99.90;;;;;;5134748;27;20034;-59
2023/10/01 08:36:14;;;;;;;16.88;7.22;;;17.00;99.90;;;;;;5116320;27;20107;-59
2023/10/01 08:38:47;;;;;;;13.40;6.90;;;17.10;99.90;;;;;;5134326;27;20481;-61
2023/10/01 08:41:35;;;;;;;16.02;7.90;;;17.20;99.90;;;;;;5132253;27;20067;-62
2023/10/01 08:44:10;;;;;;;17.02;7.32;;;17.20;99.90;;;;;;5129169;27;20121;-62
2023/10/01 08:46:40;;;;;;;18.77;8.15;;;17.30;99.90;;;;;;5130239;27;20117;-60
2023/10/01 08:49:24;;;;;;;20.58;7.55;;;17.30;99.90;;;;;;5125020;27;20032;-62
2023/10/01 08:52:17;;;;;;;15.40;7.45;;;17.40;99.90;;;;;;5111863;27;20101;-62
2023/10/01 08:54:43;;;;;;;14.48;7.03;;;17.40;99.90;;;;;;5129740;27;20418;-61
2023/10/01 08:57:17;;;;;;;15.18;7.85;;;17.40;99.90;;;;;;5128314;27;20039;-64
2023/10/01 08:59:44;;;;;;;18.30;7.53;;;17.50;99.90;;;;;;5125403;27;20096;-61
2023/10/01 09:02:19;;;;;;;13.93;7.10;;;17.60;99.90;;;;;;5126059;27;20047;-64
2023/10/01 09:04:47;;;;;;;18.05;7.50;;;17.80;99.90;;;;;;5132937;27;20455;-64
2023/10/01 09:07:20;;;;;;;16.95;7.57;;;17.90;99.90;;;;;;5131113;27;20046;-64
2023/10/01 09:10:09;;;;;;;18.00;7.72;;;18.00;99.90;;;;;;5122381;27;20043;-63
2023/10/01 09:12:45;;;;;;;17.27;7.57;;;18.10;99.90;;;;;;5107655;27;20051;-62
2023/10/01 09:15:22;;;;;;;14.95;7.00;;;18.30;99.90;;;;;;5124525;27;20092;-62
2023/10/01 09:17:57;;;;;;;16.30;7.60;;;18.40;99.90;;;;;;5126287;27;20066;-62
2023/10/01 09:20:50;;;;;;;19.02;8.25;;;18.50;99.90;;;;;;5107939;27;20066;-63
2023/10/01 09:23:17;;;;;;;15.05;7.90;;;18.50;99.90;;;;;;5084273;28;20487;-63
2023/10/01 09:25:55;;;;;;;16.38;7.90;;;18.60;99.90;;;;;;5084404;28;20186;-62
2023/10/01 09:28:37;;;;;;;16.15;8.10;;;18.60;99.90;;;;;;5084252;28;20048;-62
2023/10/01 09:33:48;;;;;;;16.48;7.70;;;18.60;99.90;;;;;;5083706;28;20052;-64
2023/10/01 09:36:53;;;;;;;16.67;7.57;;;18.70;99.90;;;;;;5083632;28;20443;-63
2023/10/01 09:39:22;;;;;;;17.30;8.50;;;18.60;99.90;;;;;;5019562;28;20037;-63
2023/10/01 09:41:51;;;;;;;16.38;8.07;;;18.60;99.90;;;;;;5072620;28;20067;-61
2023/10/01 09:44:18;;;;;;;15.75;7.43;;;18.60;99.90;;;;;;5084548;28;20033;-63
2023/10/01 09:46:45;;;;;;;15.15;7.57;;;18.60;99.90;;;;;;5082540;28;20078;-60
2023/10/01 09:49:26;;;;;;;16.17;7.43;;;18.50;99.90;;;;;;5083240;28;20055;-61
2023/10/01 09:51:56;;;;;;;15.32;7.25;;;18.50;99.90;;;;;;5081808;28;20090;-60
2023/10/01 09:54:28;;;;;;;17.92;7.28;;;18.60;99.90;;;;;;5082926;28;20035;-60
2023/10/01 09:56:56;;;;;;;16.42;7.97;;;18.60;99.90;;;;;;5063437;28;20411;-60
2023/10/01 09:59:26;;;;;;;14.32;7.78;;;18.70;99.90;;;;;;5081231;28;20552;-60
2023/10/01 10:02:00;;;;;;;15.57;8.07;;;18.70;99.90;;;;;;5081915;28;20048;-62
2023/10/01 10:04:26;;;;;;;15.98;8.57;;;18.80;99.90;;;;;;5080620;28;20054;-64
2023/10/01 10:07:01;;;;;;;17.52;8.82;;;18.90;99.90;;;;;;5081481;28;20064;-61
2023/10/01 10:09:30;;;;;;;14.77;8.27;;;18.90;99.90;;;;;;5082037;28;20032;-61
2023/10/01 10:11:58;;;;;;;18.52;8.25;;;19.10;99.90;;;;;;5081044;28;20044;-61
2023/10/01 10:14:33;;;;;;;16.38;7.90;;;19.20;99.90;;;;;;5064332;28;20046;-59
2023/10/01 10:23:16;;;;;;;16.52;7.85;;;19.30;99.90;;;;;;5081241;28;20036;-64
2023/10/01 10:25:44;;;;;;;16.98;8.55;;;19.40;99.90;;;;;;5079011;28;20093;-61
2023/10/01 10:28:12;;;;;;;15.32;7.38;;;19.50;99.90;;;;;;5080897;28;20032;-65
2023/10/01 10:30:46;;;;;;;15.73;7.75;;;19.60;99.90;;;;;;5062242;28;20032;-62
2023/10/01 10:33:14;;;;;;;15.13;7.57;;;19.70;99.90;;;;;;5081489;28;20051;-63
2023/10/01 10:35:49;;;;;;;17.23;8.05;;;19.90;99.90;;;;;;5080506;28;20348;-63
2023/10/01 10:38:54;;;;;;;16.27;7.70;;;19.90;99.90;;;;;;5080369;28;20128;-61
2023/10/01 10:41:25;;;;;;;16.10;7.75;;;20.10;99.90;;;;;;5058088;28;20165;-62
2023/10/01 10:44:10;;;;;;;16.50;7.82;;;20.10;99.90;;;;;;5079630;28;20040;-61
2023/10/01 10:47:01;;;;;;;16.38;7.75;;;20.30;99.90;;;;;;5081144;28;20044;-62
2023/10/01 10:49:53;;;;;;;16.58;8.10;;;20.40;99.90;;;;;;5081286;28;20386;-61
2023/10/01 10:52:32;;;;;;;16.60;7.97;;;20.50;99.90;;;;;;5074949;28;20503;-63
2023/10/01 10:55:15;;;;;;;15.18;7.53;;;20.70;99.90;;;;;;5082580;28;20083;-63
2023/10/01 10:57:48;;;;;;;16.55;7.82;;;20.80;99.90;;;;;;5063732;28;20046;-64
2023/10/01 11:00:24;;;;;;;16.48;7.60;;;20.80;99.90;;;;;;5082211;28;20552;-64
2023/10/01 11:02:56;;;;;;;14.55;7.68;;;20.90;99.90;;;;;;5082647;28;20491;-64
2023/10/01 11:05:29;;;;;;;16.38;7.47;;;20.90;99.90;;;;;;5081271;28;20028;-64
2023/10/01 11:07:59;;;;;;;16.50;8.05;;;20.90;99.90;;;;;;5080540;28;20039;-62
2023/10/01 11:10:29;;;;;;;15.18;7.75;;;20.90;99.90;;;;;;5080680;28;20111;-62
2023/10/01 11:12:54;;;;;;;18.35;7.43;;;21.00;99.90;;;;;;5048393;28;20046;-61
2023/10/01 11:15:23;;;;;;;16.33;7.63;;;21.10;99.90;;;;;;5088348;28;20036;-60
2023/10/01 11:18:00;;;;;;;14.80;7.35;;;21.10;99.90;;;;;;5086045;28;20047;-62
2023/10/01 11:20:33;;;;;;;17.23;7.65;;;21.20;99.90;;;;;;5089277;28;20034;-63
2023/10/01 11:22:59;;;;;;;13.80;6.85;;;21.30;99.90;;;;;;5090354;28;20040;-62
2023/10/01 11:25:25;;;;;;;12.90;6.72;;;21.40;99.90;;;;;;5090409;28;20380;-62
2023/10/01 11:28:05;;;;;;;15.50;6.88;;;21.50;99.90;;;;;;5089918;28;20126;-64
2023/10/01 11:30:42;;;;;;;14.32;6.65;;;21.60;99.90;;;;;;5090176;28;20040;-63
2023/10/01 11:35:37;;;;;;;14.25;6.90;;;21.80;99.90;;;;;;5089167;28;20051;-65
2023/10/01 11:38:10;;;;;;;15.32;6.43;;;21.90;99.90;;;;;;5090452;28;20047;-64
2023/10/01 11:43:27;;;;;;;15.38;7.28;;;22.20;99.90;;;;;;5072636;28;20101;-63
2023/10/01 11:46:21;;;;;;;13.35;6.13;;;22.50;99.90;;;;;;5090776;28;20036;-62
2023/10/01 11:48:57;;;;;;;15.80;6.97;;;22.80;99.90;;;;;;5089067;28;20031;-63
2023/10/01 11:51:45;;;;;;;15.10;6.03;;;23.10;99.90;;;;;;5091088;28;20502;-62
2023/10/01 11:54:13;;;;;;;16.80;6.88;;;23.20;99.90;;;;;;5091138;28;20124;-63
2023/10/01 11:56:40;;;;;;;14.48;6.60;;;23.20;99.90;;;;;;5090936;28;20040;-62
2023/10/01 11:59:17;;;;;;;13.68;6.40;;;23.30;99.90;;;;;;5090697;28;20040;-61
2023/10/01 12:01:52;;;;;;;12.80;6.15;;;23.40;99.90;;;;;;5090467;28;20403;-62
2023/10/01 12:04:43;;;;;;;15.77;6.57;;;23.30;99.90;;;;;;5090142;28;20036;-61
2023/10/01 12:07:18;;;;;;;11.50;5.90;;;23.30;99.90;;;;;;5090577;28;20476;-62
2023/10/01 12:09:54;;;;;;;13.60;6.80;;;23.30;99.90;;;;;;5089165;28;20044;-62
2023/10/01 12:12:36;;;;;;;17.17;6.45;;;23.40;99.90;;;;;;5072509;28;20040;-61
2023/10/01 12:17:48;;;;;;;15.02;6.88;;;23.40;99.90;;;;;;5072399;28;20040;-63
2023/10/01 12:20:22;;;;;;;13.70;6.57;;;23.40;99.90;;;;;;5090742;28;20036;-60
2023/10/01 12:26:31;;;;;;;14.73;6.78;;;23.30;99.90;;;;;;5044404;28;20037;-62
2023/10/01 12:29:11;;;;;;;11.55;5.97;;;23.20;99.90;;;;;;5089077;28;20514;-62
2023/10/01 12:31:30;;;;;;;13.75;6.28;;;23.30;99.90;;;;;;5090258;28;20483;-62
2023/10/01 12:33:59;;;;;;;12.80;6.45;;;23.50;99.90;;;;;;5090180;28;20047;-61
2023/10/01 12:36:32;;;;;;;12.23;6.70;;;23.60;99.90;;;;;;5089998;28;20040;-59
2023/10/01 12:41:47;;;;;;;13.00;6.60;;;24.00;99.90;;;;;;5090049;28;20387;-61
2023/10/01 12:44:30;;;;;;;13.07;6.28;;;24.00;99.90;;;;;;5090211;28;20068;-63
2023/10/01 12:47:02;;;;;;;13.80;6.40;;;24.00;99.90;;;;;;5091198;28;20089;-63
2023/10/01 12:49:32;;;;;;;12.70;6.43;;;24.00;99.90;;;;;;5093902;28;20032;-65
2023/10/01 12:51:59;;;;;;;13.60;6.57;;;23.90;99.90;;;;;;5093387;28;20434;-62
2023/10/01 12:54:25;;;;;;;13.60;7.10;;;23.80;99.90;;;;;;5092424;28;20123;-62
2023/10/01 12:57:18;;;;;;;12.07;6.07;;;23.80;99.90;;;;;;5092731;28;20048;-61
2023/10/01 12:59:46;;;;;;;14.77;6.32;;;23.80;99.90;;;;;;5093452;28;20040;-61
2023/10/01 13:02:28;;;;;;;14.13;7.13;;;23.70;99.90;;;;;;5092964;28;20122;-61
2023/10/01 13:07:46;;;;;;;15.30;6.70;;;23.60;99.90;;;;;;5093285;28;20066;-61
2023/10/01 13:10:12;;;;;;;13.27;6.43;;;23.60;99.90;;;;;;5092981;28;20039;-63
2023/10/01 13:12:39;;;;;;;13.18;6.82;;;23.60;99.90;;;;;;5092725;28;20050;-61
2023/10/01 13:15:14;;;;;;;12.80;6.10;;;23.70;99.90;;;;;;5093636;28;20475;-60
2023/10/01 13:17:43;;;;;;;12.50;6.50;;;23.90;99.90;;;;;;5093422;28;20047;-61
2023/10/01 13:20:26;;;;;;;16.02;6.80;;;24.00;99.90;;;;;;5093337;28;20501;-63
2023/10/01 13:22:52;;;;;;;13.45;5.90;;;24.20;99.90;;;;;;5092925;28;20059;-62
2023/10/01 13:25:24;;;;;;;13.05;6.22;;;24.20;99.90;;;;;;5075103;28;20395;-62
2023/10/01 13:28:06;;;;;;;13.63;6.75;;;24.30;99.90;;;;;;5091978;28;20494;-60
2023/10/01 13:31:35;;;;;;;11.55;5.93;;;24.40;99.90;;;;;;5092393;28;20036;-59
2023/10/01 13:33:23;;;;;;;16.67;7.60;;;24.60;99.90;;;;;;5073525;28;20294;-60
2023/10/01 13:35:58;;;;;;;12.98;6.32;;;24.60;99.90;;;;;;5074225;28;20051;-63
2023/10/01 13:38:37;;;;;;;15.88;6.65;;;24.60;99.90;;;;;;5092762;28;20044;-60
2023/10/01 14:11:04;;;;;;;13.88;7.30;;;23.70;99.90;;;;;;5092135;28;20154;-62
2023/10/01 14:13:34;;;;;;;15.75;8.15;;;23.70;99.90;;;;;;5092383;28;20028;-62
2023/10/01 14:19:13;;;;;;;14.48;7.35;;;23.50;99.90;;;;;;5070185;28;20044;-60
2023/10/01 14:21:40;;;;;;;15.27;7.43;;;23.50;99.90;;;;;;5073747;28;20048;-62
2023/10/01 14:24:24;;;;;;;13.30;7.35;;;23.50;99.90;;;;;;5092325;28;20032;-62
2023/10/01 14:26:51;;;;;;;15.35;8.13;;;23.60;99.90;;;;;;5073905;28;20395;-60
2023/10/01 14:29:22;;;;;;;16.75;8.10;;;23.60;99.90;;;;;;5091963;28;20032;-59
2023/10/01 14:31:54;;;;;;;15.27;8.20;;;23.60;99.90;;;;;;5091819;28;20387;-60
2023/10/01 14:34:21;;;;;;;16.65;8.40;;;23.50;99.90;;;;;;5091728;28;20031;-61
2023/10/01 14:36:58;;;;;;;16.45;8.52;;;23.50;99.90;;;;;;5091709;28;20077;-62